CheckWX is a tool to help pilots better visualize weather data.  It is not intended as a substitute for an official pre-flight weather briefing.

19:57:50 UTC

UWOO TAF
Orenburg Central Airport
Orenburg, Russian Federation
TAF UWOO 251657Z 2518/2618 36006G12MPS 9999 SCT020CB BKN040 TX26/2610Z TN12/2601Z TEMPO 2518/2606 33007G14MPS -SHRA BKN015CB BECMG 2606/2607 32005G12MPS TEMPO 2607/2618 33003G10MPS

Jun-25@
18:00 UTC

Jun-25 @ 18:00 UTC

Jun-26@
06:00 UTC

Jun-26 @ 06:00 UTC

TAF UWOO 251657Z 2518/2618 36006G12MPS 9999 SCT020CB BKN040 TX26/2610Z TN12/2601Z
Wind
  • 360° at 12 KTS
  • {Gusting to 23 KTS
Cloud Levels
  • Scattered at 2,000' AGL
  • Broken at 4,000' AGL

Jun-25@
18:00 UTC

Jun-25 @ 18:00 UTC

Jun-26@
06:00 UTC

Jun-26 @ 06:00 UTC

TEMPO 2518/2606 33007G14MPS -SHRA BKN015CB

Temporary

Temporary Changes expected for less than half the time period

Wind
  • 330° at 14 KTS
  • {Gusting to 27 KTS
Conditions
Light Rain
Cloud Levels
  • Broken at 1,500' AGL

Jun-26@
06:00 UTC

Jun-26 @ 06:00 UTC

Jun-26@
18:00 UTC

Jun-26 @ 18:00 UTC

BECMG 2606/2607 32005G12MPS

Becoming

Becoming Conditions expected by Wed, Jun 26, 2019 @ 07:00 UTC

Wind
  • 320° at 10 KTS
  • {Gusting to 23 KTS
Cloud Levels
  • Scattered at 2,000' AGL
  • Broken at 4,000' AGL

Jun-26@
07:00 UTC

Jun-26 @ 07:00 UTC

Jun-26@
18:00 UTC

Jun-26 @ 18:00 UTC

TEMPO 2607/2618 33003G10MPS

Temporary

Temporary Changes expected for less than half the time period

Wind
  • 330° at 6 KTS
  • {Gusting to 19 KTS